sensor_id;sensor_type;location;lat;lon;timestamp;pressure;altitude;pressure_sealevel;temperature;humidity
46394;BME280;32099;53.588;10.176;2024-02-21T00:02:16;101469.16;;;9.25;95.64
46394;BME280;32099;53.588;10.176;2024-02-21T00:04:43;101464.44;;;9.27;96.45
46394;BME280;32099;53.588;10.176;2024-02-21T00:07:11;101466.13;;;9.28;95.93
46394;BME280;32099;53.588;10.176;2024-02-21T00:09:37;101461.88;;;9.25;95.88
46394;BME280;32099;53.588;10.176;2024-02-21T00:12:03;101457.44;;;9.24;96.01
46394;BME280;32099;53.588;10.176;2024-02-21T00:14:29;101464.59;;;9.25;96.51
46394;BME280;32099;53.588;10.176;2024-02-21T00:16:54;101456.56;;;9.24;96.57
46394;BME280;32099;53.588;10.176;2024-02-21T00:19:20;101465.75;;;9.23;96.53
46394;BME280;32099;53.588;10.176;2024-02-21T00:21:46;101455.03;;;9.21;97.18
46394;BME280;32099;53.588;10.176;2024-02-21T00:24:15;101452.13;;;9.23;96.81
46394;BME280;32099;53.588;10.176;2024-02-21T00:26:40;101446.16;;;9.19;97.30
46394;BME280;32099;53.588;10.176;2024-02-21T00:29:06;101441.72;;;9.18;98.10
46394;BME280;32099;53.588;10.176;2024-02-21T00:31:32;101436.59;;;9.15;97.63
46394;BME280;32099;53.588;10.176;2024-02-21T00:33:58;101429.47;;;9.14;97.17
46394;BME280;32099;53.588;10.176;2024-02-21T00:36:24;101419.41;;;9.15;97.63
46394;BME280;32099;53.588;10.176;2024-02-21T00:38:50;101414.97;;;9.14;97.75
46394;BME280;32099;53.588;10.176;2024-02-21T00:41:18;101414.97;;;9.14;97.97
46394;BME280;32099;53.588;10.176;2024-02-21T00:43:44;101413.97;;;9.15;97.40
46394;BME280;32099;53.588;10.176;2024-02-21T00:46:10;101403.25;;;9.13;98.18
46394;BME280;32099;53.588;10.176;2024-02-21T00:48:35;101409.72;;;9.12;98.07
46394;BME280;32099;53.588;10.176;2024-02-21T00:51:01;101397.81;;;9.13;98.21
46394;BME280;32099;53.588;10.176;2024-02-21T00:53:27;101397.13;;;9.11;98.08
46394;BME280;32099;53.588;10.176;2024-02-21T00:55:53;101391.50;;;9.13;98.26
46394;BME280;32099;53.588;10.176;2024-02-21T00:58:21;101396.94;;;9.13;98.61
46394;BME280;32099;53.588;10.176;2024-02-21T01:00:47;101396.94;;;9.13;98.19
46394;BME280;32099;53.588;10.176;2024-02-21T01:03:12;101401.38;;;9.14;98.09
46394;BME280;32099;53.588;10.176;2024-02-21T01:05:38;101392.38;;;9.13;98.46
46394;BME280;32099;53.588;10.176;2024-02-21T01:08:04;101388.78;;;9.13;98.46
46394;BME280;32099;53.588;10.176;2024-02-21T01:10:30;101387.78;;;9.14;98.89
46394;BME280;32099;53.588;10.176;2024-02-21T01:15:35;101377.75;;;9.14;98.39
46394;BME280;32099;53.588;10.176;2024-02-21T01:18:00;101367.56;;;9.16;98.79
46394;BME280;32099;53.588;10.176;2024-02-21T01:20:26;101366.88;;;9.14;99.39
46394;BME280;32099;53.588;10.176;2024-02-21T01:22:52;101365.84;;;9.15;98.71
46394;BME280;32099;53.588;10.176;2024-02-21T01:25:18;101363.81;;;9.17;98.62
46394;BME280;32099;53.588;10.176;2024-02-21T01:27:43;101362.97;;;9.17;98.99
46394;BME280;32099;53.588;10.176;2024-02-21T01:30:10;101363.28;;;9.14;99.52
46394;BME280;32099;53.588;10.176;2024-02-21T01:32:39;101352.56;;;9.12;99.38
46394;BME280;32099;53.588;10.176;2024-02-21T01:35:04;101354.44;;;9.11;99.98
46394;BME280;32099;53.588;10.176;2024-02-21T01:37:30;101355.28;;;9.12;99.99
46394;BME280;32099;53.588;10.176;2024-02-21T01:39:56;101347.97;;;9.13;99.77
46394;BME280;32099;53.588;10.176;2024-02-21T01:42:22;101354.13;;;9.15;100.00
46394;BME280;32099;53.588;10.176;2024-02-21T01:44:49;101348.66;;;9.15;100.00
46394;BME280;32099;53.588;10.176;2024-02-21T01:47:15;101332.19;;;9.16;100.00
46394;BME280;32099;53.588;10.176;2024-02-21T01:49:44;101332.34;;;9.15;100.00
46394;BME280;32099;53.588;10.176;2024-02-21T01:52:10;101321.47;;;9.15;100.00
46394;BME280;32099;53.588;10.176;2024-02-21T01:54:38;101266.53;;;8.85;100.00
46394;BME280;32099;53.588;10.176;2024-02-21T01:57:04;101314.47;;;9.12;100.00
46394;BME280;32099;53.588;10.176;2024-02-21T01:59:30;101313.59;;;9.11;100.00
46394;BME280;32099;53.588;10.176;2024-02-21T02:01:56;101245.34;;;8.70;100.00
46394;BME280;32099;53.588;10.176;2024-02-21T02:04:23;101308.81;;;9.05;100.00
46394;BME280;32099;53.588;10.176;2024-02-21T02:06:53;101302.50;;;9.05;100.00
46394;BME280;32099;53.588;10.176;2024-02-21T02:09:20;101297.25;;;9.03;100.00
46394;BME280;32099;53.588;10.176;2024-02-21T02:11:46;101290.97;;;9.03;100.00
46394;BME280;32099;53.588;10.176;2024-02-21T02:14:12;101273.06;;;9.00;100.00
46394;BME280;32099;53.588;10.176;2024-02-21T02:16:38;101273.06;;;9.00;100.00
46394;BME280;32099;53.588;10.176;2024-02-21T02:19:03;101260.81;;;8.96;100.00
46394;BME280;32099;53.588;10.176;2024-02-21T02:21:29;101266.25;;;8.96;100.00
46394;BME280;32099;53.588;10.176;2024-02-21T02:24:02;101248.06;;;8.97;100.00
46394;BME280;32099;53.588;10.176;2024-02-21T02:26:29;101223.75;;;8.95;100.00
46394;BME280;32099;53.588;10.176;2024-02-21T02:28:55;101212.00;;;8.94;100.00
46394;BME280;32099;53.588;10.176;2024-02-21T02:31:21;101195.84;;;8.93;100.00
46394;BME280;32099;53.588;10.176;2024-02-21T02:33:46;101184.44;;;8.89;100.00
46394;BME280;32099;53.588;10.176;2024-02-21T02:36:12;101157.25;;;8.89;100.00
46394;BME280;32099;53.588;10.176;2024-02-21T02:38:38;101145.50;;;8.89;100.00
46394;BME280;32099;53.588;10.176;2024-02-21T02:41:06;101130.19;;;8.88;100.00
46394;BME280;32099;53.588;10.176;2024-02-21T02:43:32;101131.91;;;8.89;100.00
46394;BME280;32099;53.588;10.176;2024-02-21T02:45:58;101152.66;;;8.90;100.00
46394;BME280;32099;53.588;10.176;2024-02-21T02:48:23;101099.28;;;8.54;100.00
46394;BME280;32099;53.588;10.176;2024-02-21T02:50:49;101187.69;;;8.93;100.00
46394;BME280;32099;53.588;10.176;2024-02-21T02:53:15;101205.72;;;8.94;100.00
46394;BME280;32099;53.588;10.176;2024-02-21T02:55:41;101202.34;;;9.00;100.00
46394;BME280;32099;53.588;10.176;2024-02-21T02:58:09;101185.00;;;9.01;100.00
46394;BME280;32099;53.588;10.176;2024-02-21T03:00:35;101170.41;;;9.02;100.00
46394;BME280;32099;53.588;10.176;2024-02-21T03:03:01;101170.41;;;9.02;100.00
46394;BME280;32099;53.588;10.176;2024-02-21T03:05:27;101187.59;;;9.03;100.00
46394;BME280;32099;53.588;10.176;2024-02-21T03:07:53;101181.66;;;9.07;100.00
46394;BME280;32099;53.588;10.176;2024-02-21T03:10:19;101189.81;;;9.07;100.00
46394;BME280;32099;53.588;10.176;2024-02-21T03:12:45;101189.63;;;9.09;100.00
46394;BME280;32099;53.588;10.176;2024-02-21T03:15:14;101199.50;;;9.10;100.00
46394;BME280;32099;53.588;10.176;2024-02-21T03:17:40;101210.22;;;9.11;100.00
46394;BME280;32099;53.588;10.176;2024-02-21T03:20:06;101207.66;;;9.10;100.00
46394;BME280;32099;53.588;10.176;2024-02-21T03:22:32;101205.78;;;9.10;100.00
46394;BME280;32099;53.588;10.176;2024-02-21T03:24:58;101212.94;;;9.11;100.00
46394;BME280;32099;53.588;10.176;2024-02-21T03:27:24;101201.03;;;9.13;100.00
46394;BME280;32099;53.588;10.176;2024-02-21T03:29:50;101199.19;;;9.13;100.00
46394;BME280;32099;53.588;10.176;2024-02-21T03:32:18;101206.50;;;9.13;100.00
46394;BME280;32099;53.588;10.176;2024-02-21T03:34:44;101216.34;;;9.14;100.00
46394;BME280;32099;53.588;10.176;2024-02-21T03:37:09;101211.09;;;9.12;100.00
46394;BME280;32099;53.588;10.176;2024-02-21T03:39:35;101207.19;;;9.15;100.00
46394;BME280;32099;53.588;10.176;2024-02-21T03:42:01;101210.75;;;9.15;100.00
46394;BME280;32099;53.588;10.176;2024-02-21T03:44:27;101200.72;;;9.16;100.00
46394;BME280;32099;53.588;10.176;2024-02-21T03:46:53;101208.72;;;9.17;100.00
46394;BME280;32099;53.588;10.176;2024-02-21T03:49:21;101216.75;;;9.19;100.00
46394;BME280;32099;53.588;10.176;2024-02-21T03:51:47;101210.94;;;9.22;100.00
46394;BME280;32099;53.588;10.176;2024-02-21T03:54:12;101210.63;;;9.25;100.00
46394;BME280;32099;53.588;10.176;2024-02-21T03:56:38;101210.31;;;9.28;100.00
46394;BME280;32099;53.588;10.176;2024-02-21T03:59:04;101207.59;;;9.28;100.00
46394;BME280;32099;53.588;10.176;2024-02-21T04:01:31;101198.41;;;9.29;100.00
46394;BME280;32099;53.588;10.176;2024-02-21T04:03:56;101198.41;;;9.29;100.00
46394;BME280;32099;53.588;10.176;2024-02-21T04:06:25;101193.81;;;9.30;100.00
46394;BME280;32099;53.588;10.176;2024-02-21T04:08:51;101195.69;;;9.29;100.00
46394;BME280;32099;53.588;10.176;2024-02-21T04:11:17;101187.84;;;9.26;100.00
46394;BME280;32099;53.588;10.176;2024-02-21T04:13:44;101192.59;;;9.24;100.00
46394;BME280;32099;53.588;10.176;2024-02-21T04:16:10;101185.78;;;9.20;100.00
46394;BME280;32099;53.588;10.176;2024-02-21T04:18:36;101188.66;;;9.18;100.00
46394;BME280;32099;53.588;10.176;2024-02-21T04:21:02;101180.66;;;9.17;100.00
46394;BME280;32099;53.588;10.176;2024-02-21T04:23:30;101174.22;;;9.18;100.00
46394;BME280;32099;53.588;10.176;2024-02-21T04:25:56;101178.66;;;9.19;100.00
46394;BME280;32099;53.588;10.176;2024-02-21T04:28:22;101166.75;;;9.20;100.00
46394;BME280;32099;53.588;10.176;2024-02-21T04:30:47;101170.63;;;9.17;100.00
46394;BME280;32099;53.588;10.176;2024-02-21T04:33:13;101161.09;;;9.13;100.00
46394;BME280;32099;53.588;10.176;2024-02-21T04:35:39;101163.44;;;9.08;100.00
46394;BME280;32099;53.588;10.176;2024-02-21T04:38:05;101154.94;;;9.03;100.00
46394;BME280;32099;53.588;10.176;2024-02-21T04:40:33;101155.59;;;9.05;100.00
46394;BME280;32099;53.588;10.176;2024-02-21T04:42:59;101156.78;;;9.02;100.00
46394;BME280;32099;53.588;10.176;2024-02-21T04:45:24;101166.84;;;9.02;100.00
46394;BME280;32099;53.588;10.176;2024-02-21T04:47:50;101156.97;;;9.01;100.00
46394;BME280;32099;53.588;10.176;2024-02-21T04:50:16;101153.56;;;8.99;100.00
46394;BME280;32099;53.588;10.176;2024-02-21T04:52:42;101150.31;;;8.95;100.00
46394;BME280;32099;53.588;10.176;2024-02-21T04:55:08;101144.69;;;8.97;100.00
46394;BME280;32099;53.588;10.176;2024-02-21T04:57:37;101151.66;;;8.99;100.00
46394;BME280;32099;53.588;10.176;2024-02-21T05:00:03;101152.38;;;9.01;100.00
46394;BME280;32099;53.588;10.176;2024-02-21T05:02:29;101149.97;;;8.98;100.00
46394;BME280;32099;53.588;10.176;2024-02-21T05:04:55;101151.00;;;8.97;100.00
46394;BME280;32099;53.588;10.176;2024-02-21T05:07:21;101156.28;;;8.99;100.00
46394;BME280;32099;53.588;10.176;2024-02-21T05:09:47;101146.56;;;8.96;100.00
46394;BME280;32099;53.588;10.176;2024-02-21T05:12:13;101145.00;;;8.93;100.00
46394;BME280;32099;53.588;10.176;2024-02-21T05:14:41;101147.22;;;8.90;100.00
46394;BME280;32099;53.588;10.176;2024-02-21T05:17:07;101143.66;;;8.89;100.00
46394;BME280;32099;53.588;10.176;2024-02-21T05:19:33;101143.47;;;8.91;100.00
46394;BME280;32099;53.588;10.176;2024-02-21T05:21:59;101138.91;;;8.91;100.00
46394;BME280;32099;53.588;10.176;2024-02-21T05:24:24;101139.91;;;8.90;100.00
46394;BME280;32099;53.588;10.176;2024-02-21T05:26:50;101144.66;;;8.88;100.00
46394;BME280;32099;53.588;10.176;2024-02-21T05:29:16;101144.81;;;8.87;100.00
46394;BME280;32099;53.588;10.176;2024-02-21T05:31:54;101137.50;;;8.87;100.00
46394;BME280;32099;53.588;10.176;2024-02-21T05:34:21;101147.06;;;8.91;100.00
46394;BME280;32099;53.588;10.176;2024-02-21T05:36:47;101137.03;;;8.92;100.00
46394;BME280;32099;53.588;10.176;2024-02-21T05:39:12;101141.63;;;8.91;100.00
46394;BME280;32099;53.588;10.176;2024-02-21T05:41:38;101138.91;;;8.91;100.00
46394;BME280;32099;53.588;10.176;2024-02-21T05:44:04;101137.19;;;8.90;100.00
46394;BME280;32099;53.588;10.176;2024-02-21T05:46:30;101132.59;;;8.91;100.00
46394;BME280;32099;53.588;10.176;2024-02-21T05:48:58;101129.88;;;8.91;100.00
46394;BME280;32099;53.588;10.176;2024-02-21T05:51:24;101131.59;;;8.92;100.00
46394;BME280;32099;53.588;10.176;2024-02-21T05:53:49;101139.06;;;8.90;100.00
46394;BME280;32099;53.588;10.176;2024-02-21T05:56:15;101075.31;;;8.49;100.00
46394;BME280;32099;53.588;10.176;2024-02-21T05:58:41;101136.66;;;8.87;100.00
46394;BME280;32099;53.588;10.176;2024-02-21T06:01:07;101135.81;;;8.86;100.00
46394;BME280;32099;53.588;10.176;2024-02-21T06:03:32;101128.34;;;8.88;100.00
46394;BME280;32099;53.588;10.176;2024-02-21T06:06:01;101140.06;;;8.89;100.00
46394;BME280;32099;53.588;10.176;2024-02-21T06:08:27;101144.34;;;8.91;100.00
46394;BME280;32099;53.588;10.176;2024-02-21T06:10:53;101146.88;;;8.93;100.00
46394;BME280;32099;53.588;10.176;2024-02-21T06:13:19;101145.00;;;8.93;100.00
46394;BME280;32099;53.588;10.176;2024-02-21T06:15:45;101153.16;;;8.93;100.00
46394;BME280;32099;53.588;10.176;2024-02-21T06:18:11;101161.19;;;8.95;100.00
46394;BME280;32099;53.588;10.176;2024-02-21T06:20:37;101163.03;;;8.94;100.00
46394;BME280;32099;53.588;10.176;2024-02-21T06:23:05;101162.91;;;8.96;100.00
46394;BME280;32099;53.588;10.176;2024-02-21T06:25:31;101166.47;;;8.97;100.00
46394;BME280;32099;53.588;10.176;2024-02-21T06:27:57;101158.28;;;8.97;100.00
46394;BME280;32099;53.588;10.176;2024-02-21T06:30:23;101157.47;;;8.96;100.00
46394;BME280;32099;53.588;10.176;2024-02-21T06:32:49;101155.56;;;8.97;100.00
46394;BME280;32099;53.588;10.176;2024-02-21T06:35:15;101144.88;;;8.95;100.00
46394;BME280;32099;53.588;10.176;2024-02-21T06:37:41;101154.88;;;8.94;100.00
46394;BME280;32099;53.588;10.176;2024-02-21T06:40:09;101167.63;;;8.94;100.00
46394;BME280;32099;53.588;10.176;2024-02-21T06:42:35;101167.63;;;8.94;100.00
46394;BME280;32099;53.588;10.176;2024-02-21T06:45:01;101162.91;;;8.96;100.00
46394;BME280;32099;53.588;10.176;2024-02-21T06:47:27;101157.81;;;9.01;100.00
46394;BME280;32099;53.588;10.176;2024-02-21T06:49:53;101165.47;;;9.06;100.00
46394;BME280;32099;53.588;10.176;2024-02-21T06:52:18;101158.69;;;9.10;100.00
46394;BME280;32099;53.588;10.176;2024-02-21T06:54:44;101156.16;;;9.08;100.00
46394;BME280;32099;53.588;10.176;2024-02-21T06:57:12;101172.47;;;9.08;100.00
46394;BME280;32099;53.588;10.176;2024-02-21T06:59:38;101164.16;;;9.10;100.00
46394;BME280;32099;53.588;10.176;2024-02-21T07:02:04;101157.50;;;9.13;100.00
46394;BME280;32099;53.588;10.176;2024-02-21T07:04:30;101165.69;;;9.13;100.00
46394;BME280;32099;53.588;10.176;2024-02-21T07:06:56;101163.66;;;9.15;100.00
46394;BME280;32099;53.588;10.176;2024-02-21T07:09:22;101163.66;;;9.15;100.00
46394;BME280;32099;53.588;10.176;2024-02-21T07:11:47;101164.34;;;9.17;100.00
46394;BME280;32099;53.588;10.176;2024-02-21T07:14:17;101149.88;;;9.16;100.00
46394;BME280;32099;53.588;10.176;2024-02-21T07:16:43;101156.19;;;9.17;100.00
46394;BME280;32099;53.588;10.176;2024-02-21T07:19:09;101156.31;;;9.15;100.00
46394;BME280;32099;53.588;10.176;2024-02-21T07:21:35;101149.72;;;9.18;100.00
46394;BME280;32099;53.588;10.176;2024-02-21T07:24:00;101149.56;;;9.19;100.00
46394;BME280;32099;53.588;10.176;2024-02-21T07:26:26;101149.22;;;9.14;100.00
46394;BME280;32099;53.588;10.176;2024-02-21T07:28:52;101160.09;;;9.14;100.00
46394;BME280;32099;53.588;10.176;2024-02-21T07:31:20;101164.50;;;9.15;100.00
46394;BME280;32099;53.588;10.176;2024-02-21T07:33:46;101168.41;;;9.13;100.00
46394;BME280;32099;53.588;10.176;2024-02-21T07:36:11;101166.88;;;9.10;100.00
46394;BME280;32099;53.588;10.176;2024-02-21T07:38:37;101161.25;;;9.11;100.00
46394;BME280;32099;53.588;10.176;2024-02-21T07:41:03;101161.25;;;9.11;100.00
46394;BME280;32099;53.588;10.176;2024-02-21T07:43:28;101163.97;;;9.11;100.00
46394;BME280;32099;53.588;10.176;2024-02-21T07:45:54;101162.13;;;9.12;100.00
46394;BME280;32099;53.588;10.176;2024-02-21T07:48:23;101173.84;;;9.13;100.00
46394;BME280;32099;53.588;10.176;2024-02-21T07:50:49;101168.25;;;9.14;100.00
46394;BME280;32099;53.588;10.176;2024-02-21T07:53:14;101170.31;;;9.20;100.00
46394;BME280;32099;53.588;10.176;2024-02-21T07:55:40;101159.09;;;9.23;100.00
46394;BME280;32099;53.588;10.176;2024-02-21T07:58:06;101166.25;;;9.24;100.00
46394;BME280;32099;53.588;10.176;2024-02-21T08:00:31;101159.94;;;9.24;100.00
46394;BME280;32099;53.588;10.176;2024-02-21T08:02:57;101165.06;;;9.27;100.00
46394;BME280;32099;53.588;10.176;2024-02-21T08:05:25;101179.50;;;9.27;100.00
46394;BME280;32099;53.588;10.176;2024-02-21T08:07:51;101166.25;;;9.24;100.00
46394;BME280;32099;53.588;10.176;2024-02-21T08:10:17;101174.25;;;9.26;100.00
46394;BME280;32099;53.588;10.176;2024-02-21T08:12:43;101169.81;;;9.25;100.00
46394;BME280;32099;53.588;10.176;2024-02-21T08:15:08;101161.81;;;9.23;100.00
46394;BME280;32099;53.588;10.176;2024-02-21T08:17:34;101168.09;;;9.24;100.00
46394;BME280;32099;53.588;10.176;2024-02-21T08:20:00;101157.22;;;9.24;100.00
46394;BME280;32099;53.588;10.176;2024-02-21T08:22:28;101160.47;;;9.27;100.00
46394;BME280;32099;53.588;10.176;2024-02-21T08:24:54;101160.84;;;9.33;100.00
46394;BME280;32099;53.588;10.176;2024-02-21T08:27:20;101159.63;;;9.35;100.00
46394;BME280;32099;53.588;10.176;2024-02-21T08:29:45;101158.63;;;9.36;100.00
46394;BME280;32099;53.588;10.176;2024-02-21T08:32:11;101150.84;;;9.41;100.00
46394;BME280;32099;53.588;10.176;2024-02-21T08:34:36;101149.47;;;9.46;100.00
46394;BME280;32099;53.588;10.176;2024-02-21T08:37:02;101099.88;;;9.17;100.00
46394;BME280;32099;53.588;10.176;2024-02-21T08:39:31;101149.13;;;9.49;100.00
46394;BME280;32099;53.588;10.176;2024-02-21T08:41:57;101149.47;;;9.46;100.00
46394;BME280;32099;53.588;10.176;2024-02-21T08:44:23;101145.56;;;9.48;100.00
46394;BME280;32099;53.588;10.176;2024-02-21T08:46:48;101147.94;;;9.51;100.00
46394;BME280;32099;53.588;10.176;2024-02-21T08:49:14;101151.88;;;9.49;100.00
46394;BME280;32099;53.588;10.176;2024-02-21T08:51:40;101147.25;;;9.49;100.00
46394;BME280;32099;53.588;10.176;2024-02-21T08:54:05;101149.13;;;9.49;100.00
46394;BME280;32099;53.588;10.176;2024-02-21T08:56:34;101153.38;;;9.43;100.00
46394;BME280;32099;53.588;10.176;2024-02-21T08:59:00;101153.06;;;9.46;100.00
46394;BME280;32099;53.588;10.176;2024-02-21T09:01:25;101146.25;;;9.50;100.00
46394;BME280;32099;53.588;10.176;2024-02-21T09:03:51;101145.59;;;9.56;100.00
46394;BME280;32099;53.588;10.176;2024-02-21T09:06:17;101151.72;;;9.59;100.00
46394;BME280;32099;53.588;10.176;2024-02-21T09:08:42;101160.22;;;9.55;100.00
46394;BME280;32099;53.588;10.176;2024-02-21T09:11:08;101158.84;;;9.51;100.00
46394;BME280;32099;53.588;10.176;2024-02-21T09:13:37;101145.72;;;9.55;100.00
46394;BME280;32099;53.588;10.176;2024-02-21T09:16:03;101149.31;;;9.55;100.00
46394;BME280;32099;53.588;10.176;2024-02-21T09:18:29;101153.91;;;9.55;100.00
46394;BME280;32099;53.588;10.176;2024-02-21T09:20:55;101139.44;;;9.54;100.00
46394;BME280;32099;53.588;10.176;2024-02-21T09:23:23;101142.00;;;9.56;100.00
46394;BME280;32099;53.588;10.176;2024-02-21T09:25:49;101135.38;;;9.59;100.00
46394;BME280;32099;53.588;10.176;2024-02-21T09:28:14;101147.28;;;9.57;100.00
46394;BME280;32099;53.588;10.176;2024-02-21T09:30:43;101145.72;;;9.55;100.00
46394;BME280;32099;53.588;10.176;2024-02-21T09:33:09;101134.00;;;9.54;100.00
46394;BME280;32099;53.588;10.176;2024-02-21T09:35:34;101129.41;;;9.55;100.00
46394;BME280;32099;53.588;10.176;2024-02-21T09:38:01;101117.66;;;9.54;100.00
46394;BME280;32099;53.588;10.176;2024-02-21T09:40:27;101131.78;;;9.58;100.00
46394;BME280;32099;53.588;10.176;2024-02-21T09:42:54;101128.06;;;9.59;100.00
46394;BME280;32099;53.588;10.176;2024-02-21T09:45:27;101129.41;;;9.55;100.00
46394;BME280;32099;53.588;10.176;2024-02-21T09:48:03;101128.06;;;9.51;100.00
46394;BME280;32099;53.588;10.176;2024-02-21T09:50:39;101131.47;;;9.53;100.00
46394;BME280;32099;53.588;10.176;2024-02-21T09:53:06;101125.00;;;9.54;100.00
46394;BME280;32099;53.588;10.176;2024-02-21T09:55:32;101120.22;;;9.56;100.00
46394;BME280;32099;53.588;10.176;2024-02-21T09:57:58;101110.53;;;9.53;100.00
46394;BME280;32099;53.588;10.176;2024-02-21T10:00:26;101118.88;;;9.52;100.00
46394;BME280;32099;53.588;10.176;2024-02-21T10:02:51;101054.81;;;9.15;100.00
46394;BME280;32099;53.588;10.176;2024-02-21T10:05:20;101122.59;;;9.51;100.00
46394;BME280;32099;53.588;10.176;2024-02-21T10:07:45;101127.03;;;9.52;100.00
46394;BME280;32099;53.588;10.176;2024-02-21T10:10:13;101127.34;;;9.49;100.00
46394;BME280;32099;53.588;10.176;2024-02-21T10:12:47;101124.97;;;9.46;100.00
46394;BME280;32099;53.588;10.176;2024-02-21T10:15:14;101122.09;;;9.47;100.00
46394;BME280;32099;53.588;10.176;2024-02-21T10:17:45;101119.53;;;9.46;100.00
46394;BME280;32099;53.588;10.176;2024-02-21T10:20:11;101115.44;;;9.41;100.00
46394;BME280;32099;53.588;10.176;2024-02-21T10:22:40;101121.91;;;9.40;100.00
46394;BME280;32099;53.588;10.176;2024-02-21T10:25:09;101118.31;;;9.40;100.00
46394;BME280;32099;53.588;10.176;2024-02-21T10:27:36;101119.69;;;9.44;100.00
46394;BME280;32099;53.588;10.176;2024-02-21T10:30:02;101114.25;;;9.44;100.00
46394;BME280;32099;53.588;10.176;2024-02-21T10:32:28;101109.13;;;9.41;100.00
46394;BME280;32099;53.588;10.176;2024-02-21T10:35:00;101110.16;;;9.40;100.00
46394;BME280;32099;53.588;10.176;2024-02-21T10:37:27;101109.31;;;9.39;100.00
46394;BME280;32099;53.588;10.176;2024-02-21T10:39:55;101111.34;;;9.37;100.00
46394;BME280;32099;53.588;10.176;2024-02-21T10:42:21;101113.22;;;9.37;100.00
46394;BME280;32099;53.588;10.176;2024-02-21T10:44:47;101100.63;;;9.36;100.00
46394;BME280;32099;53.588;10.176;2024-02-21T10:47:16;101105.06;;;9.37;100.00
46394;BME280;32099;53.588;10.176;2024-02-21T10:49:43;101093.31;;;9.36;100.00
46394;BME280;32099;53.588;10.176;2024-02-21T10:52:12;101091.59;;;9.35;100.00
46394;BME280;32099;53.588;10.176;2024-02-21T10:54:41;101087.69;;;9.38;100.00
46394;BME280;32099;53.588;10.176;2024-02-21T10:57:12;101075.78;;;9.39;100.00
46394;BME280;32099;53.588;10.176;2024-02-21T10:59:38;101076.31;;;9.43;100.00
46394;BME280;32099;53.588;10.176;2024-02-21T11:02:05;101074.25;;;9.45;100.00
46394;BME280;32099;53.588;10.176;2024-02-21T11:04:30;101071.38;;;9.46;100.00
46394;BME280;32099;53.588;10.176;2024-02-21T11:06:58;101063.38;;;9.45;100.00
46394;BME280;32099;53.588;10.176;2024-02-21T11:09:29;101065.94;;;9.46;100.00
46394;BME280;32099;53.588;10.176;2024-02-21T11:11:55;101060.31;;;9.48;100.00
46394;BME280;32099;53.588;10.176;2024-02-21T11:14:25;101062.72;;;9.51;100.00
46394;BME280;32099;53.588;10.176;2024-02-21T11:16:52;101067.47;;;9.49;100.00
46394;BME280;32099;53.588;10.176;2024-02-21T11:19:21;101065.94;;;9.46;100.00
46394;BME280;32099;53.588;10.176;2024-02-21T11:21:48;101066.28;;;9.43;100.00
46394;BME280;32099;53.588;10.176;2024-02-21T11:24:14;101050.25;;;9.40;100.00
46394;BME280;32099;53.588;10.176;2024-02-21T11:26:51;101048.75;;;9.37;100.00
46394;BME280;32099;53.588;10.176;2024-02-21T11:29:22;101045.34;;;9.35;100.00
46394;BME280;32099;53.588;10.176;2024-02-21T11:31:51;101048.06;;;9.35;100.00
46394;BME280;32099;53.588;10.176;2024-02-21T11:34:18;101050.94;;;9.34;100.00
46394;BME280;32099;53.588;10.176;2024-02-21T11:36:47;101046.34;;;9.34;100.00
46394;BME280;32099;53.588;10.176;2024-02-21T11:39:17;101032.91;;;9.33;100.00
46394;BME280;32099;53.588;10.176;2024-02-21T11:41:43;101039.56;;;9.30;100.00
46394;BME280;32099;53.588;10.176;2024-02-21T11:44:09;101029.69;;;9.29;100.00
46394;BME280;32099;53.588;10.176;2024-02-21T11:46:37;101031.38;;;9.30;100.00
46394;BME280;32099;53.588;10.176;2024-02-21T11:49:03;101029.69;;;9.29;100.00
46394;BME280;32099;53.588;10.176;2024-02-21T11:51:29;101018.13;;;9.27;100.00
46394;BME280;32099;53.588;10.176;2024-02-21T11:53:55;101013.00;;;9.24;100.00
46394;BME280;32099;53.588;10.176;2024-02-21T11:56:20;101019.63;;;9.21;100.00
46394;BME280;32099;53.588;10.176;2024-02-21T11:58:46;101007.88;;;9.21;100.00
46394;BME280;32099;53.588;10.176;2024-02-21T12:01:12;101009.59;;;9.22;100.00
46394;BME280;32099;53.588;10.176;2024-02-21T12:03:41;101004.16;;;9.22;100.00
46394;BME280;32099;53.588;10.176;2024-02-21T12:06:07;101000.41;;;9.23;100.00
46394;BME280;32099;53.588;10.176;2024-02-21T12:08:40;101001.59;;;9.20;100.00
46394;BME280;32099;53.588;10.176;2024-02-21T12:11:15;100995.31;;;9.20;100.00
46394;BME280;32099;53.588;10.176;2024-02-21T12:13:41;100982.22;;;9.23;100.00
46394;BME280;32099;53.588;10.176;2024-02-21T12:16:07;100981.38;;;9.23;100.00
46394;BME280;32099;53.588;10.176;2024-02-21T12:18:32;100985.28;;;9.20;100.00
46394;BME280;32099;53.588;10.176;2024-02-21T12:21:01;100997.34;;;9.18;100.00
46394;BME280;32099;53.588;10.176;2024-02-21T12:23:27;100988.84;;;9.21;100.00
46394;BME280;32099;53.588;10.176;2024-02-21T12:25:52;100993.13;;;9.23;100.00
46394;BME280;32099;53.588;10.176;2024-02-21T12:28:18;100988.00;;;9.29;100.00
46394;BME280;32099;53.588;10.176;2024-02-21T12:30:44;100982.75;;;9.27;100.00
46394;BME280;32099;53.588;10.176;2024-02-21T12:33:09;100986.97;;;9.30;100.00
46394;BME280;32099;53.588;10.176;2024-02-21T12:35:35;100974.38;;;9.29;100.00
46394;BME280;32099;53.588;10.176;2024-02-21T12:38:03;100973.88;;;9.25;100.00
46394;BME280;32099;53.588;10.176;2024-02-21T12:40:29;100981.03;;;9.26;100.00